Time;durP1;ratioP1;P1;durP2;ratioP2;P2;SDS_P1;SDS_P2;PMS_P1;PMS_P2;Temp;Humidity;BMP_temperature;BMP_pressure;BME280_temperature;BME280_humidity;BME280_pressure;Samples;Min_cycle;Max_cycle;Signal;HPM_P1;HPM_P2
2021/01/03 00:01:58;;;;;;;42.97;25.30;;;;;;;2.09;88.00;100218.31;5059594;28;20468;-69
2021/01/03 00:04:24;;;;;;;44.03;25.53;;;;;;;2.13;87.15;100229.53;5061065;28;20449;-69
2021/01/03 00:06:51;;;;;;;41.67;26.07;;;;;;;2.02;87.51;100219.59;5059704;28;20513;-69
2021/01/03 00:09:17;;;;;;;40.80;24.83;;;;;;;1.99;87.93;100217.97;5061721;28;20922;-69
2021/01/03 00:11:43;;;;;;;44.97;24.60;;;;;;;2.00;87.68;100230.22;5059287;28;20508;-69
2021/01/03 00:14:09;;;;;;;46.50;25.93;;;;;;;2.06;87.35;100221.94;5061424;28;20429;-69
2021/01/03 00:16:37;;;;;;;41.63;25.10;;;;;;;2.10;87.00;100219.13;5059159;28;20587;-69
2021/01/03 00:19:04;;;;;;;39.70;24.20;;;;;;;1.98;87.34;100220.69;5061710;28;20595;-68
2021/01/03 00:21:30;;;;;;;42.07;25.40;;;;;;;1.96;87.18;100227.84;5058756;28;20468;-70
2021/01/03 00:23:56;;;;;;;46.27;26.10;;;;;;;1.89;87.62;100222.06;5061525;28;20923;-68
2021/01/03 00:26:22;;;;;;;40.83;23.80;;;;;;;1.83;87.80;100231.16;5059632;28;20484;-69
2021/01/03 00:28:48;;;;;;;42.57;24.30;;;;;;;1.81;88.12;100224.28;5061360;28;20433;-70
2021/01/03 00:31:15;;;;;;;42.17;23.77;;;;;;;1.83;87.70;100223.25;5060086;28;21047;-70
2021/01/03 00:33:42;;;;;;;42.30;24.43;;;;;;;1.88;87.45;100226.47;5061744;28;20449;-69
2021/01/03 00:36:09;;;;;;;41.60;24.73;;;;;;;1.90;87.67;100218.50;5059699;28;20488;-70
2021/01/03 00:38:35;;;;;;;33.00;22.00;;;;;;;1.87;87.56;100211.63;5061419;28;21071;-70
2021/01/03 00:41:01;;;;;;;42.83;24.50;;;;;;;1.91;87.16;100220.19;5059907;28;21025;-70
2021/01/03 00:43:27;;;;;;;46.77;23.67;;;;;;;1.85;87.28;100217.91;5061122;28;20453;-69
2021/01/03 00:45:53;;;;;;;44.57;24.73;;;;;;;1.81;87.46;100211.09;5059887;28;20496;-69
2021/01/03 00:48:19;;;;;;;42.00;24.17;;;;;;;1.80;87.24;100206.75;5061506;28;20443;-70
2021/01/03 00:50:46;;;;;;;35.60;21.77;;;;;;;1.81;86.38;100213.75;5059519;28;20514;-69
2021/01/03 00:53:13;;;;;;;34.17;21.30;;;;;;;1.87;86.08;100200.19;5061495;28;20495;-70
2021/01/03 00:55:39;;;;;;;37.23;22.00;;;;;;;1.85;85.54;100204.72;5060079;28;20477;-69
2021/01/03 00:58:05;;;;;;;36.73;20.90;;;;;;;1.79;85.75;100212.94;5060530;28;20484;-70
2021/01/03 01:00:33;;;;;;;33.30;20.80;;;;;;;1.83;85.37;100204.78;5059987;28;20472;-69
2021/01/03 01:03:00;;;;;;;37.77;21.10;;;;;;;1.81;85.59;100214.59;5061514;28;20444;-68
2021/01/03 01:05:27;;;;;;;32.47;18.60;;;;;;;1.85;85.56;100210.00;5059142;28;20475;-69
2021/01/03 01:07:54;;;;;;;34.57;19.00;;;;;;;1.89;85.23;100208.88;5061569;28;20489;-70
2021/01/03 01:10:22;;;;;;;32.57;20.37;;;;;;;1.86;85.58;100209.06;5059895;28;20444;-71
2021/01/03 01:12:49;;;;;;;27.70;18.40;;;;;;;1.86;85.10;100211.69;5061346;28;20437;-71
2021/01/03 01:15:18;;;;;;;30.97;20.43;;;;;;;1.78;85.65;100221.81;5062654;28;20448;-71
2021/01/03 01:17:44;;;;;;;33.40;19.10;;;;;;;1.75;86.16;100220.19;5065241;28;20499;-71
2021/01/03 01:20:12;;;;;;;35.90;21.00;;;;;;;1.79;85.37;100216.47;5063042;28;20511;-71
2021/01/03 01:22:38;;;;;;;30.43;19.50;;;;;;;1.76;86.09;100231.59;5064763;28;20456;-71
2021/01/03 01:25:06;;;;;;;33.60;20.17;;;;;;;1.78;85.55;100225.28;5063365;28;20489;-68
2021/01/03 01:27:35;;;;;;;28.97;19.40;;;;;;;1.78;85.33;100224.44;5065047;28;20429;-71
2021/01/03 01:30:03;;;;;;;34.73;20.90;;;;;;;1.77;85.45;100228.00;5065207;28;20477;-71
2021/01/03 01:32:29;;;;;;;32.73;20.83;;;;;;;1.79;85.31;100231.41;5064331;28;20475;-71
2021/01/03 01:34:55;;;;;;;30.83;17.67;;;;;;;1.76;84.42;100236.88;5064346;28;20453;-70
2021/01/03 01:37:21;;;;;;;26.53;17.57;;;;;;;1.79;82.76;100229.63;5063488;28;20496;-71
2021/01/03 01:39:49;;;;;;;22.00;15.10;;;;;;;1.77;81.68;100226.25;5064441;28;20464;-71
2021/01/03 01:42:16;;;;;;;23.90;14.83;;;;;;;1.85;81.95;100221.38;5063273;28;20473;-71
2021/01/03 01:44:42;;;;;;;23.07;14.50;;;;;;;1.91;80.95;100219.31;5064543;28;20910;-71
2021/01/03 01:47:19;;;;;;;20.87;12.87;;;;;;;1.91;79.06;100224.59;5063556;28;20499;-70
2021/01/03 01:49:45;;;;;;;17.63;11.33;;;;;;;1.94;77.58;100212.09;5063954;28;20513;-70
2021/01/03 01:52:13;;;;;;;14.60;11.07;;;;;;;1.98;76.58;100215.41;5062814;28;20504;-70
2021/01/03 01:54:41;;;;;;;14.80;10.00;;;;;;;1.96;76.84;100212.88;5064421;28;20510;-70
2021/01/03 01:57:11;;;;;;;13.60;9.93;;;;;;;1.92;76.28;100213.97;5061899;28;20542;-70
2021/01/03 01:59:41;;;;;;;16.20;9.87;;;;;;;1.94;75.86;100214.72;5063962;28;20516;-71
2021/01/03 02:02:10;;;;;;;11.50;7.50;;;;;;;2.05;73.95;100216.78;5062382;28;20484;-70
2021/01/03 02:04:40;;;;;;;11.43;7.07;;;;;;;1.99;73.04;100211.84;5063759;28;20497;-70
2021/01/03 02:07:11;;;;;;;8.90;6.47;;;;;;;2.03;70.83;100210.72;5061273;28;20489;-69
2021/01/03 02:09:49;;;;;;;8.57;6.07;;;;;;;2.08;70.38;100213.94;5063081;28;20448;-70
2021/01/03 02:12:22;;;;;;;5.17;4.50;;;;;;;2.09;69.55;100207.75;5063644;28;20497;-70
2021/01/03 02:14:50;;;;;;;5.53;3.90;;;;;;;2.13;68.56;100209.25;5064485;28;21164;-69
2021/01/03 02:17:16;;;;;;;4.60;4.00;;;;;;;2.16;68.93;100206.47;5063262;28;20477;-69
2021/01/03 02:19:42;;;;;;;5.13;4.60;;;;;;;2.14;67.78;100205.72;5064524;28;20461;-70
2021/01/03 02:22:13;;;;;;;5.57;3.97;;;;;;;2.17;68.53;100208.16;5063168;28;20512;-71
2021/01/03 02:24:45;;;;;;;4.20;3.70;;;;;;;2.15;68.30;100206.53;5064290;28;20571;-68
2021/01/03 02:27:16;;;;;;;4.07;3.57;;;;;;;2.20;68.49;100202.69;5062364;28;20984;-69
2021/01/03 02:29:44;;;;;;;5.20;3.60;;;;;;;2.16;68.40;100214.38;5064912;28;20484;-70
2021/01/03 02:32:10;;;;;;;6.10;3.70;;;;;;;2.15;68.95;100211.81;5063458;28;20500;-70
2021/01/03 02:34:40;;;;;;;5.97;4.57;;;;;;;2.07;68.61;100205.19;5064768;28;20476;-69
2021/01/03 02:37:09;;;;;;;7.27;5.03;;;;;;;2.13;69.13;100200.50;5063120;28;20488;-70
2021/01/03 02:39:43;;;;;;;6.20;4.90;;;;;;;2.11;69.99;100207.66;5064464;28;21126;-70
2021/01/03 02:42:16;;;;;;;8.80;5.40;;;;;;;2.03;70.64;100202.81;5063349;28;20497;-71
2021/01/03 02:44:42;;;;;;;7.57;6.00;;;;;;;2.00;71.32;100195.94;5064657;28;20450;-70
2021/01/03 02:47:09;;;;;;;8.63;6.50;;;;;;;2.01;71.80;100199.41;5063200;28;20883;-71
2021/01/03 02:49:35;;;;;;;10.97;7.20;;;;;;;1.90;73.23;100194.75;5064771;28;20460;-69
2021/01/03 02:52:02;;;;;;;12.30;7.67;;;;;;;1.90;73.48;100186.84;5062242;28;20512;-70
2021/01/03 02:54:29;;;;;;;10.47;7.73;;;;;;;1.86;74.60;100187.97;5064955;28;20434;-70
2021/01/03 02:56:55;;;;;;;11.90;8.73;;;;;;;1.85;74.68;100183.63;5061970;28;20481;-70
2021/01/03 02:59:23;;;;;;;13.87;8.97;;;;;;;1.81;75.02;100180.31;5064115;28;20477;-70
2021/01/03 03:01:49;;;;;;;13.63;9.43;;;;;;;1.86;74.97;100173.00;5062171;28;20477;-70
2021/01/03 03:04:16;;;;;;;17.10;9.70;;;;;;;1.79;75.38;100176.06;5064563;28;20440;-70
2021/01/03 03:06:42;;;;;;;14.70;10.13;;;;;;;1.74;76.01;100164.94;5062157;28;20476;-69
2021/01/03 03:09:08;;;;;;;16.87;9.43;;;;;;;1.79;76.17;100158.47;5063818;28;20546;-71
2021/01/03 03:11:34;;;;;;;13.67;10.07;;;;;;;1.73;76.59;100165.88;5062198;28;20501;-71
2021/01/03 03:14:00;;;;;;;15.93;10.53;;;;;;;1.72;76.15;100164.16;5064421;28;20435;-70
2021/01/03 03:16:27;;;;;;;15.07;9.67;;;;;;;1.73;76.44;100158.81;5061941;28;20842;-69
2021/01/03 03:18:53;;;;;;;16.23;10.37;;;;;;;1.67;76.58;100156.53;5064241;28;20536;-70
2021/01/03 03:21:19;;;;;;;16.37;10.20;;;;;;;1.69;76.97;100166.03;5061808;28;20477;-70
2021/01/03 03:23:46;;;;;;;15.23;10.20;;;;;;;1.65;76.89;100172.44;5063898;28;20475;-70
2021/01/03 03:26:12;;;;;;;14.77;10.13;;;;;;;1.61;77.18;100168.25;5061672;28;20895;-70
2021/01/03 03:28:38;;;;;;;13.20;9.57;;;;;;;1.63;76.92;100163.75;5063833;28;20436;-70
2021/01/03 03:31:05;;;;;;;14.87;10.40;;;;;;;1.66;76.80;100166.19;5061948;28;20488;-70
2021/01/03 03:33:32;;;;;;;16.03;10.50;;;;;;;1.61;76.64;100173.50;5063971;28;20436;-67
2021/01/03 03:35:58;;;;;;;16.90;10.07;;;;;;;1.62;76.93;100174.38;5062005;28;20546;-70
2021/01/03 03:38:24;;;;;;;14.17;9.90;;;;;;;1.62;76.64;100167.31;5063166;28;20449;-71
2021/01/03 03:40:50;;;;;;;15.87;10.00;;;;;;;1.65;77.22;100174.19;5061649;28;20505;-70
2021/01/03 03:43:16;;;;;;;14.40;10.13;;;;;;;1.64;75.96;100167.22;5063743;28;20863;-70
2021/01/03 03:45:43;;;;;;;16.87;9.67;;;;;;;1.64;76.49;100164.59;5061902;28;20519;-70
2021/01/03 03:48:10;;;;;;;16.50;10.13;;;;;;;1.62;76.62;100172.59;5063642;28;20475;-70
2021/01/03 03:50:37;;;;;;;13.67;9.10;;;;;;;1.63;76.44;100165.53;5061409;28;20496;-70
2021/01/03 03:53:03;;;;;;;14.70;9.93;;;;;;;1.62;75.69;100177.00;5063021;28;20805;-70
2021/01/03 03:55:29;;;;;;;12.00;9.13;;;;;;;1.62;76.19;100163.84;5061589;28;20496;-70
2021/01/03 03:57:55;;;;;;;11.83;8.20;;;;;;;1.66;75.39;100179.38;5062632;28;20515;-70
2021/01/03 04:00:23;;;;;;;15.70;8.33;;;;;;;1.64;76.12;100173.34;5061306;28;20440;-70
2021/01/03 04:02:49;;;;;;;16.07;8.33;;;;;;;1.65;75.88;100166.28;5062905;28;20998;-70
2021/01/03 04:05:17;;;;;;;11.20;7.30;;;;;;;1.63;75.61;100174.31;5061384;28;20492;-70
2021/01/03 04:07:45;;;;;;;12.17;8.20;;;;;;;1.63;75.44;100155.84;5062606;28;20528;-71
2021/01/03 04:10:12;;;;;;;12.27;8.20;;;;;;;1.62;75.80;100167.31;5060977;28;20449;-70
2021/01/03 04:12:38;;;;;;;10.27;7.47;;;;;;;1.63;75.27;100165.53;5063341;28;20448;-70
2021/01/03 04:15:06;;;;;;;11.30;7.23;;;;;;;1.60;75.50;100156.00;5061251;28;20992;-68
2021/01/03 04:17:32;;;;;;;11.87;7.70;;;;;;;1.62;75.45;100172.59;5063199;28;20497;-68
2021/01/03 04:19:58;;;;;;;9.53;7.43;;;;;;;1.63;75.20;100169.03;5062592;28;20472;-70
2021/01/03 04:22:28;;;;;;;12.50;7.90;;;;;;;1.64;74.87;100172.50;5061231;28;20515;-70
2021/01/03 04:24:56;;;;;;;11.83;7.60;;;;;;;1.59;74.95;100167.47;5062401;28;20457;-70
2021/01/03 04:27:22;;;;;;;12.40;8.07;;;;;;;1.62;74.66;100169.94;5060946;28;20900;-71
2021/01/03 04:29:48;;;;;;;10.87;7.47;;;;;;;1.60;74.88;100163.09;5062847;28;20445;-71
2021/01/03 04:32:14;;;;;;;8.53;6.30;;;;;;;1.59;74.82;100164.84;5061642;28;21105;-70
2021/01/03 04:34:42;;;;;;;10.43;7.20;;;;;;;1.59;75.03;100164.00;5062460;28;20475;-70
2021/01/03 04:37:09;;;;;;;9.70;7.13;;;;;;;1.54;74.50;100169.53;5060452;28;20536;-71
2021/01/03 04:39:35;;;;;;;8.20;6.33;;;;;;;1.61;74.39;100159.50;5062514;28;20461;-71
2021/01/03 04:42:05;;;;;;;8.77;6.20;;;;;;;1.66;74.34;100165.34;5060476;28;20512;-71
2021/01/03 04:44:34;;;;;;;8.90;6.23;;;;;;;1.62;73.71;100163.84;5062902;28;20444;-70
2021/01/03 04:47:04;;;;;;;7.30;5.93;;;;;;;1.62;74.03;100179.66;5060699;28;20473;-72
2021/01/03 04:49:38;;;;;;;8.83;6.77;;;;;;;1.56;74.03;100172.91;5064117;28;20444;-71
2021/01/03 04:52:29;;;;;;;9.30;5.83;;;;;;;1.60;74.11;100173.63;5064663;28;20519;-71
2021/01/03 04:55:09;;;;;;;8.40;5.70;;;;;;;1.64;74.22;100181.25;5066348;28;20452;-70
2021/01/03 04:57:43;;;;;;;9.20;6.10;;;;;;;1.62;73.19;100171.75;5064457;28;20508;-70
2021/01/03 05:00:10;;;;;;;7.90;5.50;;;;;;;1.65;73.41;100176.81;5065193;28;20474;-70
2021/01/03 05:03:25;;;;;;;8.97;5.80;;;;;;;1.62;73.49;100179.66;5066252;28;20502;-71
2021/01/03 05:05:52;;;;;;;9.50;6.23;;;;;;;1.66;73.27;100178.53;4963504;28;21365;-71
2021/01/03 05:08:26;;;;;;;6.70;5.10;;;;;;;1.64;73.03;100183.03;4965380;29;20552;-71
2021/01/03 05:10:52;;;;;;;9.43;5.90;;;;;;;1.67;72.70;100181.09;4963382;28;20508;-69
2021/01/03 05:13:35;;;;;;;6.33;5.23;;;;;;;1.64;73.13;100185.69;4965687;29;20541;-69
2021/01/03 05:16:01;;;;;;;11.53;7.30;;;;;;;1.64;73.21;100181.25;4963663;28;20509;-69
2021/01/03 05:18:28;;;;;;;5.33;4.40;;;;;;;1.65;73.15;100176.81;4965705;29;21050;-69
2021/01/03 05:20:55;;;;;;;7.43;5.40;;;;;;;1.67;73.20;100185.53;4963460;28;20509;-70
2021/01/03 05:23:23;;;;;;;8.30;5.80;;;;;;;1.64;73.32;100183.03;4965041;29;20521;-70
2021/01/03 05:25:51;;;;;;;6.73;4.43;;;;;;;1.68;73.21;100184.56;4963107;28;20567;-69
2021/01/03 05:28:21;;;;;;;6.77;5.13;;;;;;;1.69;72.75;100181.84;4965545;29;20445;-70
2021/01/03 05:30:48;;;;;;;6.50;4.97;;;;;;;1.69;73.26;100189.75;4963225;28;20477;-70
2021/01/03 05:33:25;;;;;;;7.83;5.10;;;;;;;1.72;72.94;100188.75;4965270;29;20457;-70
2021/01/03 05:35:52;;;;;;;6.60;5.27;;;;;;;1.68;72.97;100190.72;4977975;28;20476;-69
2021/01/03 05:38:36;;;;;;;8.03;4.67;;;;;;;1.68;73.44;100188.06;5065532;28;20476;-70
2021/01/03 05:41:11;;;;;;;7.73;5.77;;;;;;;1.67;73.20;100196.91;5063933;28;20538;-70
2021/01/03 05:43:37;;;;;;;7.03;5.07;;;;;;;1.68;73.14;100197.75;5065774;28;20456;-70
2021/01/03 05:46:09;;;;;;;6.70;4.83;;;;;;;1.69;73.19;100197.66;5064290;28;20982;-70
2021/01/03 05:48:39;;;;;;;5.10;4.30;;;;;;;1.71;73.19;100200.22;5065630;28;20441;-70
2021/01/03 05:51:10;;;;;;;7.70;4.60;;;;;;;1.69;72.74;100210.00;5063910;28;20469;-70
2021/01/03 05:53:36;;;;;;;10.23;5.90;;;;;;;1.71;73.18;100213.38;5065053;28;20459;-70
2021/01/03 05:56:04;;;;;;;7.20;4.97;;;;;;;1.69;73.31;100215.28;5063700;28;20521;-70
2021/01/03 05:58:36;;;;;;;6.90;5.10;;;;;;;1.67;73.23;100209.25;5065367;28;20507;-70
2021/01/03 06:01:16;;;;;;;5.87;4.60;;;;;;;1.66;73.31;100211.00;5063395;28;20516;-70
2021/01/03 06:03:43;;;;;;;5.00;4.50;;;;;;;1.67;73.33;100219.78;5065433;28;20436;-70
2021/01/03 06:06:12;;;;;;;7.77;5.03;;;;;;;1.67;73.72;100215.34;5063725;28;20496;-70
2021/01/03 06:08:40;;;;;;;6.33;4.20;;;;;;;1.70;73.90;100219.59;5064484;28;20536;-70
2021/01/03 06:11:14;;;;;;;6.80;5.07;;;;;;;1.66;73.87;100218.91;5063212;28;20473;-70
2021/01/03 06:13:51;;;;;;;8.80;4.70;;;;;;;1.74;73.88;100218.50;5065297;28;20538;-71
2021/01/03 06:16:21;;;;;;;7.07;4.47;;;;;;;1.80;73.56;100209.41;5063608;28;20508;-70
2021/01/03 06:18:50;;;;;;;6.80;5.10;;;;;;;1.73;73.78;100211.50;5065263;28;20438;-70
2021/01/03 06:21:23;;;;;;;7.13;4.70;;;;;;;1.69;74.13;100221.38;5063740;28;20507;-71
2021/01/03 06:24:00;;;;;;;6.70;4.80;;;;;;;1.69;73.76;100213.47;5064611;28;20942;-72
2021/01/03 06:26:30;;;;;;;6.43;4.87;;;;;;;1.69;74.07;100217.91;5063100;28;20480;-71
2021/01/03 06:28:56;;;;;;;6.23;4.60;;;;;;;1.72;73.95;100217.75;5064483;28;20477;-69
2021/01/03 06:31:59;;;;;;;6.40;4.43;;;;;;;1.67;73.92;100212.72;5063304;28;20562;-69
2021/01/03 06:34:30;;;;;;;7.63;4.70;;;;;;;1.68;74.12;100222.34;5045400;28;20527;-70
2021/01/03 06:36:58;;;;;;;7.40;5.30;;;;;;;1.68;73.86;100221.47;5047903;28;20523;-69
2021/01/03 06:39:48;;;;;;;6.17;4.63;;;;;;;1.66;74.24;100218.91;5064929;28;20445;-69
2021/01/03 06:42:38;;;;;;;7.50;4.50;;;;;;;1.64;74.31;100214.66;5059078;28;20500;-70
2021/01/03 06:45:58;;;;;;;7.40;4.67;;;;;;;1.69;73.70;100210.84;5063423;28;20453;-70
2021/01/03 06:48:55;;;;;;;5.20;4.17;;;;;;;1.64;73.94;100215.50;5002842;28;20461;-70
2021/01/03 06:51:36;;;;;;;6.50;4.70;;;;;;;1.65;74.66;100217.22;5000803;28;20506;-70
2021/01/03 06:54:12;;;;;;;5.73;3.93;;;;;;;1.64;74.36;100214.66;4983229;28;20457;-70
2021/01/03 06:57:11;;;;;;;6.57;5.20;;;;;;;1.64;74.63;100214.66;4995721;28;20506;-70
2021/01/03 06:59:59;;;;;;;6.47;4.50;;;;;;;1.62;74.61;100220.03;5002280;28;20467;-69
2021/01/03 07:02:25;;;;;;;4.47;3.70;;;;;;;1.60;74.97;100218.41;4981779;28;20495;-71
2021/01/03 07:04:52;;;;;;;6.20;4.10;;;;;;;1.58;74.92;100225.53;4993236;28;20546;-71
2021/01/03 07:07:21;;;;;;;4.93;3.97;;;;;;;1.60;75.69;100223.69;5000430;28;20507;-70
2021/01/03 07:09:58;;;;;;;5.33;3.93;;;;;;;1.66;75.30;100221.53;4992207;28;20535;-71
2021/01/03 07:12:41;;;;;;;8.20;4.63;;;;;;;1.59;75.37;100236.00;4980409;28;21023;-70
2021/01/03 07:15:13;;;;;;;4.87;3.87;;;;;;;1.55;75.54;100231.00;4982789;28;20468;-72
2021/01/03 07:18:09;;;;;;;6.23;4.63;;;;;;;1.57;75.98;100224.69;5002105;28;20515;-71
2021/01/03 07:20:38;;;;;;;6.33;4.03;;;;;;;1.60;76.10;100231.59;4964170;28;20511;-71
2021/01/03 07:23:18;;;;;;;5.90;4.40;;;;;;;1.55;75.98;100229.19;4987868;28;20471;-70
2021/01/03 07:25:47;;;;;;;5.60;3.77;;;;;;;1.57;75.51;100222.06;5019348;28;20505;-71
2021/01/03 07:28:15;;;;;;;5.00;3.90;;;;;;;1.59;76.36;100232.50;5024111;28;20462;-71
2021/01/03 07:30:52;;;;;;;5.00;4.10;;;;;;;1.55;75.75;100237.09;5022375;28;20477;-70
2021/01/03 07:33:50;;;;;;;6.67;4.00;;;;;;;1.56;75.60;100227.41;5023340;28;20693;-73
2021/01/03 07:36:38;;;;;;;5.70;4.30;;;;;;;1.55;76.16;100231.84;5021868;28;20518;-72
2021/01/03 07:39:21;;;;;;;5.93;3.93;;;;;;;1.57;75.32;100235.22;5022109;28;20494;-70
2021/01/03 07:41:48;;;;;;;6.67;4.60;;;;;;;1.59;75.52;100233.34;5020336;28;20546;-70
2021/01/03 07:44:31;;;;;;;5.57;4.03;;;;;;;1.64;74.90;100226.06;5023868;28;20938;-70
2021/01/03 07:46:59;;;;;;;5.50;4.10;;;;;;;1.64;75.13;100238.38;5021564;28;20474;-71
2021/01/03 07:49:42;;;;;;;6.80;4.73;;;;;;;1.62;75.30;100235.84;5023462;28;20765;-71
2021/01/03 07:52:38;;;;;;;6.43;4.50;;;;;;;1.63;75.30;100247.22;5022027;28;20493;-71
2021/01/03 07:55:22;;;;;;;5.80;4.33;;;;;;;1.66;75.28;100249.69;5009085;28;20450;-70
2021/01/03 07:57:52;;;;;;;6.77;5.17;;;;;;;1.61;75.44;100249.09;5022565;28;20482;-71
2021/01/03 08:00:20;;;;;;;6.30;4.23;;;;;;;1.64;75.43;100249.78;5021116;28;20455;-71
2021/01/03 08:02:47;;;;;;;5.43;3.97;;;;;;;1.66;75.71;100247.91;5023084;28;20457;-71
2021/01/03 08:05:13;;;;;;;5.63;4.53;;;;;;;1.65;76.02;100254.13;5022081;28;20912;-71
2021/01/03 08:07:39;;;;;;;4.87;3.90;;;;;;;1.68;75.63;100247.81;5037403;28;20476;-70
2021/01/03 08:10:11;;;;;;;5.70;4.50;;;;;;;1.65;75.42;100261.16;5061140;28;20954;-70
2021/01/03 08:12:40;;;;;;;6.60;4.60;;;;;;;1.66;75.79;100249.69;5062507;28;20954;-71
2021/01/03 08:15:09;;;;;;;4.80;3.80;;;;;;;1.70;75.89;100251.22;5061308;28;20523;-71
2021/01/03 08:17:39;;;;;;;5.73;4.47;;;;;;;1.70;74.42;100261.75;5062529;28;21045;-71
2021/01/03 08:20:09;;;;;;;6.20;4.63;;;;;;;1.69;75.26;100257.44;5061583;28;20452;-71
2021/01/03 08:22:36;;;;;;;6.90;5.07;;;;;;;1.68;75.45;100258.34;5062139;28;20461;-71
2021/01/03 08:25:05;;;;;;;6.17;4.20;;;;;;;1.69;75.21;100253.00;5061720;28;20480;-71
2021/01/03 08:27:40;;;;;;;7.37;4.60;;;;;;;1.67;75.35;100269.84;5061287;28;20472;-71
2021/01/03 08:30:09;;;;;;;7.70;4.90;;;;;;;1.64;75.53;100257.69;5061207;28;20520;-71
2021/01/03 08:32:38;;;;;;;7.27;4.73;;;;;;;1.69;75.13;100262.72;5062355;28;20930;-70
2021/01/03 08:35:07;;;;;;;7.47;5.23;;;;;;;1.68;74.91;100261.00;5061561;28;20516;-68
2021/01/03 08:37:37;;;;;;;7.50;5.27;;;;;;;1.75;74.91;100265.00;5060009;28;20535;-69
2021/01/03 08:40:17;;;;;;;6.37;5.00;;;;;;;1.73;74.48;100266.03;5060170;28;20450;-68
2021/01/03 08:42:46;;;;;;;6.30;5.20;;;;;;;1.69;75.13;100268.81;5059638;28;20823;-69
2021/01/03 08:45:27;;;;;;;5.00;4.43;;;;;;;1.73;73.88;100271.28;5059440;28;20445;-69
2021/01/03 08:47:53;;;;;;;6.67;5.23;;;;;;;1.73;74.00;100266.03;5060988;28;20496;-69
2021/01/03 08:50:22;;;;;;;5.20;4.70;;;;;;;1.82;74.44;100262.88;5058507;28;20429;-69
2021/01/03 08:52:58;;;;;;;5.23;4.30;;;;;;;1.88;72.76;100260.75;5059120;28;20472;-69
2021/01/03 08:55:26;;;;;;;6.13;4.60;;;;;;;1.86;72.49;100257.34;5057307;28;20510;-68
2021/01/03 08:57:56;;;;;;;6.53;4.80;;;;;;;1.87;72.16;100253.78;5059140;28;20525;-68
2021/01/03 09:00:24;;;;;;;5.93;5.10;;;;;;;1.86;72.98;100262.63;5057632;28;20507;-68
2021/01/03 09:02:54;;;;;;;5.10;4.60;;;;;;;1.85;72.63;100258.28;5059370;28;20453;-69
2021/01/03 09:05:22;;;;;;;6.13;4.50;;;;;;;1.93;71.87;100255.25;5057935;28;20472;-68
2021/01/03 09:07:51;;;;;;;9.07;5.40;;;;;;;1.93;72.72;100259.63;5059196;28;20505;-69
2021/01/03 09:10:21;;;;;;;6.80;5.20;;;;;;;1.88;73.97;100252.00;5057599;28;20460;-68
2021/01/03 09:12:47;;;;;;;6.80;5.33;;;;;;;1.87;74.41;100263.47;5059030;28;20516;-68
2021/01/03 09:15:17;;;;;;;8.57;6.00;;;;;;;1.84;75.24;100261.88;5058073;28;20975;-69
2021/01/03 09:17:43;;;;;;;7.43;6.57;;;;;;;1.86;74.72;100262.63;5045886;28;20486;-71
2021/01/03 09:20:18;;;;;;;9.03;6.50;;;;;;;1.82;74.78;100265.50;5052891;28;20472;-70
2021/01/03 09:22:47;;;;;;;8.67;6.40;;;;;;;1.81;75.35;100272.56;5056406;28;20492;-67
2021/01/03 09:25:19;;;;;;;7.97;6.67;;;;;;;1.79;75.34;100274.44;5058051;28;20479;-70
2021/01/03 09:27:51;;;;;;;8.90;7.17;;;;;;;1.84;75.53;100276.81;5061112;28;20445;-70
2021/01/03 09:30:26;;;;;;;9.13;6.40;;;;;;;1.82;75.66;100276.94;5058956;28;20512;-68
2021/01/03 09:32:55;;;;;;;12.67;7.13;;;;;;;1.86;75.82;100275.81;5060576;28;20491;-69
2021/01/03 09:35:27;;;;;;;9.07;7.03;;;;;;;1.87;75.53;100282.78;5060558;28;20473;-68
2021/01/03 09:38:23;;;;;;;8.07;6.53;;;;;;;1.82;75.50;100273.41;5054613;28;20532;-69
2021/01/03 09:40:53;;;;;;;10.77;7.23;;;;;;;1.87;75.43;100276.66;5049967;28;20503;-68
2021/01/03 09:43:27;;;;;;;10.90;6.77;;;;;;;1.88;75.11;100279.22;5062055;28;20441;-69
2021/01/03 09:46:04;;;;;;;10.43;6.37;;;;;;;1.98;75.49;100283.97;5059942;28;20478;-69
2021/01/03 09:48:33;;;;;;;8.50;6.83;;;;;;;1.94;75.04;100282.44;5062399;28;20531;-68
2021/01/03 09:51:15;;;;;;;9.10;6.40;;;;;;;1.93;74.86;100278.97;5059746;28;20889;-68
2021/01/03 09:53:45;;;;;;;9.13;6.73;;;;;;;1.97;74.58;100277.84;5059984;28;20880;-69
2021/01/03 09:56:19;;;;;;;11.43;6.67;;;;;;;1.94;74.67;100285.91;5055854;28;20488;-70
2021/01/03 09:58:47;;;;;;;10.07;6.63;;;;;;;2.00;75.04;100285.59;5063782;28;20500;-69
2021/01/03 10:01:30;;;;;;;9.80;6.87;;;;;;;2.00;75.22;100276.84;5061428;28;20488;-68
2021/01/03 10:03:58;;;;;;;9.30;6.97;;;;;;;1.98;75.45;100278.69;5063923;28;20437;-67
2021/01/03 10:06:35;;;;;;;10.57;7.60;;;;;;;1.93;76.40;100286.88;5061814;28;21023;-68
2021/01/03 10:09:10;;;;;;;13.47;7.80;;;;;;;1.85;76.74;100278.53;5063138;28;20468;-68
2021/01/03 10:11:39;;;;;;;12.03;7.30;;;;;;;1.83;77.27;100281.25;5060962;28;20495;-67
2021/01/03 10:14:07;;;;;;;12.30;8.87;;;;;;;1.79;77.56;100268.31;5063847;28;20437;-68
2021/01/03 10:16:35;;;;;;;14.73;8.00;;;;;;;1.78;77.76;100282.44;5060927;28;20571;-68
2021/01/03 10:19:12;;;;;;;11.43;8.13;;;;;;;1.82;78.16;100278.69;5063674;28;20437;-68
2021/01/03 10:21:40;;;;;;;14.70;8.87;;;;;;;1.79;78.48;100282.34;5058450;28;20560;-69
2021/01/03 10:24:13;;;;;;;12.33;8.97;;;;;;;1.80;78.60;100280.56;5062565;28;20433;-70
2021/01/03 10:26:39;;;;;;;15.40;10.53;;;;;;;1.76;78.88;100279.03;5060945;28;20565;-69
2021/01/03 10:29:05;;;;;;;15.70;10.23;;;;;;;1.78;79.05;100277.16;5062998;28;20441;-70
2021/01/03 10:31:39;;;;;;;15.07;10.00;;;;;;;1.77;79.16;100276.31;5060920;28;20484;-70
2021/01/03 10:34:06;;;;;;;13.80;9.40;;;;;;;1.76;79.40;100268.50;5061056;28;20481;-70
2021/01/03 10:36:32;;;;;;;17.97;10.10;;;;;;;1.81;79.54;100267.31;5058678;28;20469;-70
2021/01/03 10:38:58;;;;;;;15.60;11.00;;;;;;;1.79;79.52;100273.56;5062545;28;20456;-69
2021/01/03 10:41:29;;;;;;;16.90;10.50;;;;;;;1.83;79.58;100265.44;5061089;28;20487;-71
2021/01/03 10:43:56;;;;;;;19.07;10.77;;;;;;;1.89;79.63;100258.97;5063570;28;20447;-71
2021/01/03 10:46:22;;;;;;;18.00;10.03;;;;;;;1.81;79.53;100272.56;5058622;28;20488;-66
2021/01/03 10:48:50;;;;;;;18.40;9.93;;;;;;;1.82;79.38;100266.38;5060258;28;20507;-69
2021/01/03 10:51:16;;;;;;;16.20;10.50;;;;;;;1.78;79.71;100264.81;5058753;28;20480;-72
2021/01/03 10:53:43;;;;;;;16.43;9.10;;;;;;;1.76;79.72;100260.59;5060990;28;20444;-68
2021/01/03 10:56:10;;;;;;;16.47;9.43;;;;;;;1.78;80.13;100259.56;5060900;28;20535;-68
2021/01/03 10:58:39;;;;;;;17.77;9.90;;;;;;;1.77;80.27;100265.78;5059711;28;20501;-67
2021/01/03 11:01:05;;;;;;;14.87;9.13;;;;;;;1.80;80.33;100262.94;5056939;28;20480;-68
2021/01/03 11:03:31;;;;;;;22.80;11.07;;;;;;;1.78;80.43;100249.00;5061652;28;20473;-69
2021/01/03 11:05:58;;;;;;;14.50;9.43;;;;;;;1.76;80.28;100250.88;5060559;28;20477;-69
2021/01/03 11:08:24;;;;;;;16.13;9.67;;;;;;;1.79;80.52;100253.38;5057603;28;20487;-68
2021/01/03 11:10:51;;;;;;;17.80;9.60;;;;;;;1.81;80.68;100246.22;5057601;28;21024;-69
2021/01/03 11:13:17;;;;;;;15.07;8.97;;;;;;;1.79;80.76;100242.81;5062427;28;20464;-70
2021/01/03 11:15:43;;;;;;;17.00;10.33;;;;;;;1.78;80.69;100240.25;5060072;28;20473;-69
2021/01/03 11:18:09;;;;;;;19.87;11.10;;;;;;;1.76;80.86;100239.50;5062174;28;20505;-70
2021/01/03 11:20:35;;;;;;;16.47;10.37;;;;;;;1.74;80.64;100239.59;5060269;28;20468;-69
2021/01/03 11:23:02;;;;;;;14.30;9.20;;;;;;;1.72;80.85;100236.19;5061172;28;20460;-69
2021/01/03 11:25:29;;;;;;;13.10;8.37;;;;;;;1.71;81.48;100237.09;5059988;28;20993;-69
2021/01/03 11:27:55;;;;;;;16.23;9.03;;;;;;;1.71;80.80;100231.84;5061852;28;20477;-67
2021/01/03 11:30:22;;;;;;;24.10;20.10;;;;;;;1.73;80.86;100229.13;5059585;28;20457;-68
2021/01/03 11:32:48;;;;;;;14.93;8.50;;;;;;;1.72;80.65;100230.03;5059361;28;20901;-69
2021/01/03 11:35:14;;;;;;;20.90;9.50;;;;;;;1.69;81.14;100231.06;5060152;28;20937;-70
2021/01/03 11:37:41;;;;;;;15.30;8.97;;;;;;;1.71;81.40;100231.00;5060028;28;20966;-69
2021/01/03 11:40:12;;;;;;;15.00;8.57;;;;;;;1.69;81.39;100226.66;5060414;28;20940;-68
2021/01/03 11:42:39;;;;;;;15.30;9.33;;;;;;;1.75;81.15;100227.25;5060619;28;20530;-69